createdAt,value
2022-10-24T00:01:25.952Z,97469.03
2022-10-24T00:03:27.227Z,97481.81
2022-10-24T00:05:28.508Z,97494.56
2022-10-24T00:07:29.801Z,97485.22
2022-10-24T00:09:31.179Z,97489.47
2022-10-24T00:11:32.462Z,97492.81
2022-10-24T00:13:34.259Z,97488.56
2022-10-24T00:15:35.527Z,97498.78
2022-10-24T00:17:36.815Z,97508.19
2022-10-24T00:19:38.154Z,97506.44
2022-10-24T00:21:39.455Z,97497.16
2022-10-24T00:23:40.751Z,97512.50
2022-10-24T00:25:42.033Z,97504.88
2022-10-24T00:27:43.297Z,97510.03
2022-10-24T00:29:44.576Z,97511.81
2022-10-24T00:31:45.896Z,97512.72
2022-10-24T00:33:47.462Z,97520.41
2022-10-24T00:35:51.418Z,97519.56
2022-10-24T00:37:52.684Z,97514.50
2022-10-24T00:39:53.983Z,97506.00
2022-10-24T00:41:58.850Z,97515.38
2022-10-24T00:44:00.163Z,97519.66
2022-10-24T00:46:01.639Z,97518.78
2022-10-24T00:48:02.893Z,97510.34
2022-10-24T00:50:04.806Z,97514.66
2022-10-24T00:52:06.087Z,97508.72
2022-10-24T00:54:07.365Z,97513.81
2022-10-24T00:56:08.685Z,97522.34
2022-10-24T00:58:09.981Z,97523.22
2022-10-24T01:00:11.340Z,97525.78
2022-10-24T01:02:12.603Z,97524.97
2022-10-24T01:04:13.902Z,97518.19
2022-10-24T01:06:15.235Z,97511.38
2022-10-24T01:08:16.494Z,97515.72
2022-10-24T01:10:17.811Z,97513.19
2022-10-24T01:12:19.142Z,97499.59
2022-10-24T01:14:20.414Z,97493.69
2022-10-24T01:16:21.690Z,97500.50
2022-10-24T01:18:22.965Z,97499.72
2022-10-24T01:20:24.233Z,97487.00
2022-10-24T01:22:25.515Z,97486.81
2022-10-24T01:24:26.794Z,97490.16
2022-10-24T01:26:28.107Z,97486.75
2022-10-24T01:28:29.383Z,97474.84
2022-10-24T01:30:30.659Z,97485.94
2022-10-24T01:32:31.949Z,97485.97
2022-10-24T01:34:33.213Z,97485.13
2022-10-24T01:36:34.542Z,97479.19
2022-10-24T01:38:35.876Z,97476.63
2022-10-24T01:40:37.166Z,97484.34
2022-10-24T01:42:38.452Z,97497.16
2022-10-24T01:44:39.722Z,97481.84
2022-10-24T01:46:41.068Z,97488.66
2022-10-24T01:48:42.377Z,97479.31
2022-10-24T01:50:43.719Z,97480.16
2022-10-24T01:52:45.222Z,97475.13
2022-10-24T01:54:48.884Z,97477.69
2022-10-24T01:56:50.200Z,97485.38
2022-10-24T01:58:51.487Z,97363.97
2022-10-24T02:00:52.783Z,97491.34
2022-10-24T02:02:55.290Z,97493.91
2022-10-24T02:04:56.558Z,97499.00
2022-10-24T02:06:57.843Z,97489.69
2022-10-24T02:08:59.145Z,97494.00
2022-10-24T02:11:00.458Z,97488.78
2022-10-24T02:13:01.793Z,97481.78
2022-10-24T02:15:03.065Z,97483.81
2022-10-24T02:17:04.341Z,97485.69
2022-10-24T02:19:05.659Z,97501.16
2022-10-24T02:21:07.144Z,97491.81
2022-10-24T02:23:08.406Z,97489.34
2022-10-24T02:25:09.695Z,97486.78
2022-10-24T02:27:10.977Z,97492.81
2022-10-24T02:29:12.319Z,97488.50
2022-10-24T02:31:13.668Z,97480.13
2022-10-24T02:33:14.979Z,97471.63
2022-10-24T02:35:16.315Z,97483.53
2022-10-24T02:37:17.585Z,97470.00
2022-10-24T02:39:18.852Z,97460.66
2022-10-24T02:41:20.266Z,97454.72
2022-10-24T02:43:21.546Z,97447.06
2022-10-24T02:45:22.847Z,97443.69
2022-10-24T02:47:24.111Z,97450.53
2022-10-24T02:49:25.407Z,97438.69
2022-10-24T02:51:26.691Z,97435.28
2022-10-24T02:53:27.995Z,97446.28
2022-10-24T02:55:29.280Z,97446.34
2022-10-24T02:57:30.615Z,97438.69
2022-10-24T02:59:31.894Z,97431.88
2022-10-24T03:01:33.234Z,97437.00
2022-10-24T03:03:34.586Z,97431.13
2022-10-24T03:05:35.857Z,97443.97
2022-10-24T03:07:37.179Z,97432.97
2022-10-24T03:09:38.482Z,97433.84
2022-10-24T03:11:39.797Z,97427.09
2022-10-24T03:13:41.059Z,97414.22
2022-10-24T03:15:42.414Z,97430.28
2022-10-24T03:17:44.079Z,97426.88
2022-10-24T03:19:45.767Z,97426.03
2022-10-24T03:21:47.043Z,97426.03
2022-10-24T03:23:48.374Z,97432.88
2022-10-24T03:25:49.650Z,97433.75
2022-10-24T03:27:50.924Z,97443.91
2022-10-24T03:29:52.217Z,97434.59
2022-10-24T03:31:53.491Z,97454.16
2022-10-24T03:33:54.759Z,97464.44
2022-10-24T03:35:56.089Z,97470.41
2022-10-24T03:37:57.457Z,97466.16
2022-10-24T03:39:58.749Z,97462.84
2022-10-24T03:42:00.014Z,97463.69
2022-10-24T03:44:01.329Z,97473.97
2022-10-24T03:46:02.649Z,97477.31
2022-10-24T03:48:03.909Z,97480.75
2022-10-24T03:50:05.226Z,97484.97
2022-10-24T03:52:06.499Z,97473.91
2022-10-24T03:54:07.779Z,97478.19
2022-10-24T03:56:09.174Z,97473.97
2022-10-24T03:58:10.435Z,97475.69
2022-10-24T04:00:11.764Z,97468.06
2022-10-24T04:02:14.052Z,97472.34
2022-10-24T04:04:15.326Z,97474.88
2022-10-24T04:06:16.826Z,97482.50
2022-10-24T04:08:18.099Z,97479.91
2022-10-24T04:10:19.396Z,97499.47
2022-10-24T04:12:20.706Z,97483.34
2022-10-24T04:14:21.994Z,97479.91
2022-10-24T04:16:24.698Z,97490.13
2022-10-24T04:18:26.010Z,97484.22
2022-10-24T04:20:27.364Z,97500.34
2022-10-24T04:22:28.685Z,97501.25
2022-10-24T04:24:29.993Z,97482.53
2022-10-24T04:26:31.307Z,97484.31
2022-10-24T04:28:32.579Z,97488.56
2022-10-24T04:30:33.890Z,97488.50
2022-10-24T04:32:35.285Z,97494.44
2022-10-24T04:34:36.557Z,97484.25
2022-10-24T04:36:38.698Z,97490.22
2022-10-24T04:38:39.987Z,97491.13
2022-10-24T04:40:41.272Z,97486.03
2022-10-24T04:42:42.749Z,97480.13
2022-10-24T04:44:44.230Z,97483.41
2022-10-24T04:46:49.243Z,97475.75
2022-10-24T04:48:53.555Z,97469.88
2022-10-24T04:50:54.870Z,97478.38
2022-10-24T04:52:56.138Z,97477.53
2022-10-24T04:54:57.420Z,97482.63
2022-10-24T04:56:58.725Z,97482.63
2022-10-24T04:59:00.019Z,97473.28
2022-10-24T05:01:01.404Z,97471.59
2022-10-24T05:03:02.763Z,97475.84
2022-10-24T05:05:04.033Z,97476.59
2022-10-24T05:07:05.323Z,97477.44
2022-10-24T05:09:06.623Z,97473.22
2022-10-24T05:11:09.834Z,97479.13
2022-10-24T05:13:11.120Z,97472.34
2022-10-24T05:15:14.598Z,97471.56
2022-10-24T05:17:15.907Z,97478.38
2022-10-24T05:19:17.258Z,97476.69
2022-10-24T05:21:18.543Z,97474.19
2022-10-24T05:23:19.871Z,97482.72
2022-10-24T05:25:21.192Z,97486.97
2022-10-24T05:27:24.799Z,97492.00
2022-10-24T05:29:26.167Z,97490.22
2022-10-24T05:31:27.521Z,97498.78
2022-10-24T05:33:28.838Z,97500.53
2022-10-24T05:35:30.155Z,97506.50
2022-10-24T05:39:37.646Z,97508.28
2022-10-24T05:41:41.138Z,97512.53
2022-10-24T05:43:44.542Z,97508.31
2022-10-24T05:45:45.897Z,97508.38
2022-10-24T05:47:47.363Z,97518.56
2022-10-24T05:49:48.933Z,97516.00
2022-10-24T05:51:50.186Z,97509.28
2022-10-24T05:53:51.470Z,97504.22
2022-10-24T05:55:52.768Z,97491.44
2022-10-24T05:57:54.038Z,97492.34
2022-10-24T05:59:55.333Z,97488.09
2022-10-24T06:01:59.761Z,97490.66
2022-10-24T06:04:01.149Z,97492.34
2022-10-24T06:06:02.430Z,97494.84
2022-10-24T06:08:03.701Z,97502.50
2022-10-24T06:10:04.999Z,97493.06
2022-10-24T06:12:08.388Z,97503.28
2022-10-24T06:14:09.796Z,97507.59
2022-10-24T06:16:11.074Z,97508.53
2022-10-24T06:18:12.379Z,97507.66
2022-10-24T06:20:13.691Z,97500.78
2022-10-24T06:22:14.981Z,97498.19
2022-10-24T06:24:16.306Z,97490.50
2022-10-24T06:26:20.389Z,97495.59
2022-10-24T06:28:24.498Z,97496.38
2022-10-24T06:30:25.771Z,97492.13
2022-10-24T06:32:27.078Z,97497.19
2022-10-24T06:34:28.368Z,97503.19
2022-10-24T06:36:31.532Z,97493.06
2022-10-24T06:38:33.075Z,97496.59
2022-10-24T06:40:34.387Z,97496.63
2022-10-24T06:42:35.659Z,97497.47
2022-10-24T06:44:38.512Z,97507.28
2022-10-24T06:46:39.858Z,97506.91
2022-10-24T06:48:41.138Z,97516.19
2022-10-24T06:50:42.466Z,97516.50
2022-10-24T06:52:43.777Z,97523.13
2022-10-24T06:54:45.103Z,97518.81
2022-10-24T06:56:46.455Z,97526.94
2022-10-24T06:58:47.715Z,97526.47
2022-10-24T07:00:49.033Z,97529.44
2022-10-24T07:02:50.455Z,97526.81
2022-10-24T07:04:51.736Z,97526.91
2022-10-24T07:06:53.094Z,97526.19
2022-10-24T07:08:54.369Z,97531.88
2022-10-24T07:10:55.674Z,97537.38
2022-10-24T07:12:56.963Z,97539.28
2022-10-24T07:14:58.231Z,97538.53
2022-10-24T07:16:59.733Z,97537.84
2022-10-24T07:19:01.021Z,97533.72
2022-10-24T07:21:02.279Z,97535.50
2022-10-24T07:23:03.569Z,97540.59
2022-10-24T07:25:04.883Z,97548.31
2022-10-24T07:27:06.162Z,97556.03
2022-10-24T07:29:07.441Z,97556.88
2022-10-24T07:31:08.799Z,97552.69
2022-10-24T07:33:10.098Z,97551.91
2022-10-24T07:35:11.401Z,97554.47
2022-10-24T07:37:12.769Z,97547.75
2022-10-24T07:39:14.116Z,97555.44
2022-10-24T07:41:15.438Z,97558.00
2022-10-24T07:43:16.769Z,97541.88
2022-10-24T07:45:18.105Z,97544.47
2022-10-24T07:47:19.380Z,97544.47
2022-10-24T07:49:20.655Z,97547.91
2022-10-24T07:51:21.933Z,97548.78
2022-10-24T07:53:26.018Z,97549.63
2022-10-24T07:55:27.314Z,97553.00
2022-10-24T07:57:28.645Z,97557.22
2022-10-24T07:59:41.708Z,97557.22
2022-10-24T08:01:43.944Z,97561.41
2022-10-24T08:03:45.252Z,97562.19
2022-10-24T08:05:46.560Z,97551.97
2022-10-24T08:07:56.052Z,97562.09
2022-10-24T08:10:01.670Z,97555.28
2022-10-24T08:12:02.931Z,97555.25
2022-10-24T08:14:04.418Z,97562.84
2022-10-24T08:16:05.737Z,97563.66
2022-10-24T08:18:07.045Z,97566.13
2022-10-24T08:20:08.371Z,97567.19
2022-10-24T08:22:10.035Z,97563.63
2022-10-24T08:24:11.347Z,97559.44
2022-10-24T08:26:12.654Z,97562.53
2022-10-24T08:28:13.928Z,97558.34
2022-10-24T08:30:17.376Z,97565.72
2022-10-24T08:32:18.665Z,97564.13
2022-10-24T08:34:20.485Z,97428.25
2022-10-24T08:36:21.782Z,97535.28
2022-10-24T08:38:23.198Z,97530.66
2022-10-24T08:40:24.462Z,97527.50
2022-10-24T08:42:25.750Z,97527.78
2022-10-24T08:44:27.051Z,97538.19
2022-10-24T08:46:28.350Z,97532.09
2022-10-24T08:48:29.657Z,97542.59
2022-10-24T08:50:31.811Z,97532.53
2022-10-24T08:52:33.087Z,97538.22
2022-10-24T08:54:34.439Z,97535.97
2022-10-24T08:56:35.699Z,97544.59
2022-10-24T08:58:36.966Z,97536.19
2022-10-24T09:00:38.275Z,97534.81
2022-10-24T09:02:39.881Z,97531.06
2022-10-24T09:04:43.901Z,97532.31
2022-10-24T09:06:45.159Z,97535.91
2022-10-24T09:08:46.473Z,97534.34
2022-10-24T09:10:47.796Z,97538.66
2022-10-24T09:12:49.074Z,97540.97
2022-10-24T09:14:50.396Z,97538.72
2022-10-24T09:16:51.697Z,97533.41
2022-10-24T09:18:53.209Z,97533.03
2022-10-24T09:20:54.498Z,97535.94
2022-10-24T09:22:55.773Z,97533.59
2022-10-24T09:24:57.094Z,97533.03
2022-10-24T09:27:00.385Z,97542.63
2022-10-24T09:29:01.677Z,97531.72
2022-10-24T09:31:02.945Z,97529.59
2022-10-24T09:33:04.235Z,97538.31
2022-10-24T09:35:05.515Z,97535.97
2022-10-24T09:37:06.846Z,97531.81
2022-10-24T09:39:08.113Z,97543.44
2022-10-24T09:41:09.425Z,97537.31
2022-10-24T09:43:10.719Z,97535.53
2022-10-24T09:45:11.983Z,97535.28
2022-10-24T09:47:13.369Z,97412.47
2022-10-24T09:49:15.221Z,97528.47
2022-10-24T09:51:16.491Z,97535.31
2022-10-24T09:53:17.823Z,97537.78
2022-10-24T09:55:19.182Z,97533.16
2022-10-24T09:57:21.483Z,97547.47
2022-10-24T09:59:22.772Z,97548.66
2022-10-24T10:01:24.183Z,97549.69
2022-10-24T10:03:26.588Z,97553.16
2022-10-24T10:05:27.871Z,97555.66
2022-10-24T10:07:29.150Z,97557.41
2022-10-24T10:09:31.783Z,97559.97
2022-10-24T10:11:35.435Z,97560.09
2022-10-24T10:13:40.994Z,97550.97
2022-10-24T10:15:42.257Z,97560.47
2022-10-24T10:17:43.845Z,97552.94
2022-10-24T10:19:45.390Z,97543.66
2022-10-24T10:21:46.707Z,97536.91
2022-10-24T10:23:48.020Z,97530.88
2022-10-24T10:25:49.285Z,97520.66
2022-10-24T10:27:50.583Z,97521.50
2022-10-24T10:29:51.854Z,97513.84
2022-10-24T10:31:54.174Z,97507.13
2022-10-24T10:33:55.438Z,97355.78
2022-10-24T10:35:56.711Z,97502.81
2022-10-24T10:37:58.003Z,97496.50
2022-10-24T10:39:59.334Z,97494.72
2022-10-24T10:42:00.609Z,97501.56
2022-10-24T10:44:01.890Z,97507.56
2022-10-24T10:46:03.174Z,97512.66
2022-10-24T10:48:04.442Z,97515.38
2022-10-24T10:50:05.759Z,97516.25
2022-10-24T10:52:07.123Z,97518.94
2022-10-24T10:54:08.438Z,97505.19
2022-10-24T10:56:09.742Z,97522.59
2022-10-24T10:58:13.155Z,97531.16
2022-10-24T11:00:14.779Z,97523.50
2022-10-24T11:02:16.223Z,97530.25
2022-10-24T11:04:17.582Z,97550.59
2022-10-24T11:06:18.859Z,97543.78
2022-10-24T11:08:20.192Z,97530.19
2022-10-24T11:10:21.458Z,97527.63
2022-10-24T11:12:22.738Z,97525.09
2022-10-24T11:14:24.052Z,97516.59
2022-10-24T11:16:25.316Z,97511.63
2022-10-24T11:18:32.994Z,97504.84
2022-10-24T11:20:36.665Z,97510.69
2022-10-24T11:22:38.002Z,97500.31
2022-10-24T11:24:39.303Z,97505.66
2022-10-24T11:26:40.645Z,97503.41
2022-10-24T11:28:41.950Z,97503.56
2022-10-24T11:30:43.304Z,97499.56
2022-10-24T11:32:44.914Z,97496.38
2022-10-24T11:34:46.383Z,97501.56
2022-10-24T11:36:50.782Z,97500.00
2022-10-24T11:38:54.687Z,97500.94
2022-10-24T11:40:58.666Z,97503.59
2022-10-24T11:43:02.417Z,97501.06
2022-10-24T11:45:03.764Z,97507.94
2022-10-24T11:47:06.575Z,97512.25
2022-10-24T11:49:08.012Z,97503.00
2022-10-24T11:51:09.287Z,97503.91
2022-10-24T11:53:10.585Z,97511.56
2022-10-24T11:55:11.858Z,97487.00
2022-10-24T11:59:15.326Z,97486.25
2022-10-24T12:01:16.622Z,97471.88
2022-10-24T12:03:17.963Z,97468.50
2022-10-24T12:05:20.243Z,97466.88
2022-10-24T12:07:21.809Z,97471.13
2022-10-24T12:09:23.107Z,97456.75
2022-10-24T12:11:24.389Z,97458.50
2022-10-24T12:13:26.127Z,97444.94
2022-10-24T12:15:27.511Z,97438.22
2022-10-24T12:17:28.837Z,97434.00
2022-10-24T12:19:30.103Z,97435.72
2022-10-24T12:21:31.567Z,97424.69
2022-10-24T12:23:32.931Z,97428.16
2022-10-24T12:25:35.413Z,97423.91
2022-10-24T12:27:37.203Z,97432.47
2022-10-24T12:29:38.801Z,97431.63
2022-10-24T12:31:40.081Z,97421.50
2022-10-24T12:33:41.410Z,97405.44
2022-10-24T12:35:46.601Z,97398.63
2022-10-24T12:37:49.140Z,97388.44
2022-10-24T12:39:52.543Z,97385.06
2022-10-24T12:41:55.967Z,97377.41
2022-10-24T12:43:57.284Z,97387.59
2022-10-24T12:46:01.537Z,97380.03
2022-10-24T12:48:02.826Z,97387.59
2022-10-24T12:50:04.209Z,97385.97
2022-10-24T12:52:05.487Z,97404.63
2022-10-24T12:54:06.821Z,97425.03
2022-10-24T12:56:08.181Z,97424.13
2022-10-24T12:58:09.555Z,97415.63
2022-10-24T13:00:10.864Z,97398.69
2022-10-24T13:02:12.570Z,97390.22
2022-10-24T13:04:13.990Z,97360.50
2022-10-24T13:06:15.271Z,97340.16
2022-10-24T13:08:16.583Z,97351.22
2022-10-24T13:10:18.073Z,97340.19
2022-10-24T13:12:19.369Z,97354.66
2022-10-24T13:14:20.644Z,97350.44
2022-10-24T13:16:21.978Z,97345.41
2022-10-24T13:18:23.272Z,97349.66
2022-10-24T13:20:24.546Z,97347.13
2022-10-24T13:22:25.851Z,97345.47
2022-10-24T13:24:27.160Z,97341.25
2022-10-24T13:26:28.490Z,97354.84
2022-10-24T13:28:36.379Z,97352.38
2022-10-24T13:30:37.710Z,97364.25
2022-10-24T13:32:38.996Z,97369.41
2022-10-24T13:34:40.274Z,97383.00
2022-10-24T13:36:42.238Z,97392.38
2022-10-24T13:38:46.407Z,97372.81
2022-10-24T13:40:50.761Z,97374.59
2022-10-24T13:42:52.020Z,97366.94
2022-10-24T13:44:53.351Z,97368.66
2022-10-24T13:46:54.980Z,97380.53
2022-10-24T13:48:56.361Z,97383.97
2022-10-24T13:50:57.648Z,97383.97
2022-10-24T13:52:59.203Z,97381.47
2022-10-24T13:55:00.543Z,97383.16
2022-10-24T13:57:02.341Z,97380.63
2022-10-24T13:59:03.845Z,97383.16
2022-10-24T14:01:05.172Z,97402.72
2022-10-24T14:03:06.536Z,97399.34
2022-10-24T14:05:07.847Z,97383.25
2022-10-24T14:07:09.957Z,97379.88
2022-10-24T14:09:11.837Z,97376.50
2022-10-24T14:11:13.138Z,97374.81
2022-10-24T14:13:14.401Z,97381.63
2022-10-24T14:15:15.712Z,97391.81
2022-10-24T14:17:22.727Z,97395.25
2022-10-24T14:19:27.235Z,97382.53
2022-10-24T14:21:32.357Z,97383.38
2022-10-24T14:23:35.335Z,97377.44
2022-10-24T14:25:36.657Z,97380.88
2022-10-24T14:27:37.938Z,97384.28
2022-10-24T14:29:39.222Z,97383.44
2022-10-24T14:31:40.490Z,97382.59
2022-10-24T14:33:41.775Z,97386.84
2022-10-24T14:35:43.048Z,97385.22
2022-10-24T14:37:44.567Z,97390.31
2022-10-24T14:39:45.967Z,97394.56
2022-10-24T14:41:47.255Z,97398.00
2022-10-24T14:43:48.535Z,97406.44
2022-10-24T14:45:49.798Z,97402.25
2022-10-24T14:47:51.052Z,97404.78
2022-10-24T14:49:52.348Z,97404.78
2022-10-24T14:53:59.862Z,97411.59
2022-10-24T14:56:01.239Z,97415.81
2022-10-24T14:58:02.719Z,97411.59
2022-10-24T15:00:07.488Z,97416.69
2022-10-24T15:02:09.066Z,97428.53
2022-10-24T15:04:10.340Z,97421.78
2022-10-24T15:06:13.629Z,97439.59
2022-10-24T15:08:22.996Z,97429.44
2022-10-24T15:10:24.727Z,97444.69
2022-10-24T15:12:26.113Z,97448.06
2022-10-24T15:14:27.435Z,97447.28
2022-10-24T15:16:28.757Z,97450.63
2022-10-24T15:18:35.850Z,97466.75
2022-10-24T15:20:37.175Z,97475.25
2022-10-24T15:22:38.537Z,97470.16
2022-10-24T15:24:44.106Z,97476.09
2022-10-24T15:26:46.278Z,97478.66
2022-10-24T15:28:47.594Z,97483.72
2022-10-24T15:30:48.878Z,97476.94
2022-10-24T15:32:50.141Z,97473.56
2022-10-24T15:34:51.406Z,97496.47
2022-10-24T15:36:52.751Z,97481.19
2022-10-24T15:38:54.032Z,97488.03
2022-10-24T15:40:55.374Z,97497.34
2022-10-24T15:42:56.686Z,97493.13
2022-10-24T15:44:57.966Z,97491.44
2022-10-24T15:46:59.687Z,97493.13
2022-10-24T15:49:00.991Z,97493.13
2022-10-24T15:51:02.291Z,97496.53
2022-10-24T15:53:03.593Z,97507.56
2022-10-24T15:55:04.862Z,97500.81
2022-10-24T15:57:06.130Z,97493.19
2022-10-24T15:59:07.449Z,97510.16
2022-10-24T16:01:08.785Z,97505.06
2022-10-24T16:03:10.163Z,97508.47
2022-10-24T16:05:11.437Z,97511.88
2022-10-24T16:07:12.703Z,97522.06
2022-10-24T16:09:14.034Z,97505.97
2022-10-24T16:11:15.349Z,97500.88
2022-10-24T16:13:16.611Z,97504.28
2022-10-24T16:15:18.081Z,97504.34
2022-10-24T16:17:19.378Z,97502.63
2022-10-24T16:19:20.654Z,97500.97
2022-10-24T16:21:21.978Z,97506.06
2022-10-24T16:23:23.444Z,97495.88
2022-10-24T16:25:24.727Z,97491.69
2022-10-24T16:27:26.073Z,97500.16
2022-10-24T16:29:27.421Z,97495.94
2022-10-24T16:31:28.723Z,97506.97
2022-10-24T16:33:30.038Z,97506.97
2022-10-24T16:35:31.530Z,97495.97
2022-10-24T16:37:32.827Z,97486.66
2022-10-24T16:39:34.158Z,97493.44
2022-10-24T16:41:35.454Z,97491.75
2022-10-24T16:43:39.063Z,97485.81
2022-10-24T16:45:43.372Z,97488.34
2022-10-24T16:47:44.643Z,97498.53
2022-10-24T16:49:45.964Z,97494.34
2022-10-24T16:51:47.227Z,97504.53
2022-10-24T16:53:48.520Z,97510.44
2022-10-24T16:55:49.796Z,97517.25
2022-10-24T16:57:51.090Z,97507.94
2022-10-24T16:59:52.454Z,97508.78
2022-10-24T17:01:53.877Z,97508.78
2022-10-24T17:03:55.242Z,97508.78
2022-10-24T17:05:56.660Z,97502.00
2022-10-24T17:07:57.943Z,97485.88
2022-10-24T17:09:59.198Z,97492.69
2022-10-24T17:12:00.584Z,97490.13
2022-10-24T17:14:01.889Z,97480.84
2022-10-24T17:16:03.240Z,97487.63
2022-10-24T17:18:04.573Z,97487.63
2022-10-24T17:20:05.917Z,97486.78
2022-10-24T17:22:07.184Z,97484.25
2022-10-24T17:24:08.605Z,97501.22
2022-10-24T17:26:12.979Z,97501.22
2022-10-24T17:28:14.278Z,97502.13
2022-10-24T17:30:15.685Z,97502.97
2022-10-24T17:32:17.023Z,97502.97
2022-10-24T17:34:18.358Z,97495.31
2022-10-24T17:36:22.662Z,97493.59
2022-10-24T17:38:24.064Z,97508.88
2022-10-24T17:40:25.993Z,97510.53
2022-10-24T17:42:30.114Z,97518.19
2022-10-24T17:44:31.394Z,97513.09
2022-10-24T17:46:32.707Z,97509.69
2022-10-24T17:48:34.018Z,97509.69
2022-10-24T17:50:35.312Z,97513.94
2022-10-24T17:52:40.059Z,97504.63
2022-10-24T17:54:44.841Z,97513.16
2022-10-24T17:56:47.258Z,97511.47
2022-10-24T17:58:51.240Z,97514.84
2022-10-24T18:00:52.557Z,97511.50
2022-10-24T18:02:59.859Z,97508.97
2022-10-24T18:05:03.913Z,97536.13
2022-10-24T18:07:05.231Z,97519.16
2022-10-24T18:09:06.522Z,97515.75
2022-10-24T18:11:11.838Z,97517.47
2022-10-24T18:13:16.173Z,97516.63
2022-10-24T18:15:19.214Z,97516.63
2022-10-24T18:17:20.482Z,97520.88
2022-10-24T18:19:21.746Z,97514.91
2022-10-24T18:21:29.974Z,97522.56
2022-10-24T18:23:31.245Z,97520.84
2022-10-24T18:25:38.353Z,97522.50
2022-10-24T18:27:39.650Z,97516.56
2022-10-24T18:31:47.158Z,97525.78
2022-10-24T18:33:55.015Z,97529.22
2022-10-24T18:36:02.100Z,97530.00
2022-10-24T18:38:03.402Z,97520.66
2022-10-24T18:40:04.775Z,97524.91
2022-10-24T18:42:06.282Z,97521.50
2022-10-24T18:44:07.567Z,97528.31
2022-10-24T18:48:11.144Z,97522.38
2022-10-24T18:50:12.414Z,97529.16
2022-10-24T18:52:14.760Z,97529.16
2022-10-24T18:54:16.130Z,97535.94
2022-10-24T18:56:19.999Z,97528.31
2022-10-24T18:58:22.138Z,97526.66
2022-10-24T19:00:23.434Z,97526.69
2022-10-24T19:02:24.792Z,97519.09
2022-10-24T19:04:26.333Z,97523.38
2022-10-24T19:06:27.642Z,97517.47
2022-10-24T19:08:28.970Z,97525.09
2022-10-24T19:10:30.297Z,97531.94
2022-10-24T19:12:31.566Z,97534.47
2022-10-24T19:14:33.582Z,97526.88
2022-10-24T19:16:34.850Z,97537.94
2022-10-24T19:18:36.121Z,97544.75
2022-10-24T19:20:37.396Z,97548.19
2022-10-24T19:22:38.658Z,97542.25
2022-10-24T19:24:39.938Z,97537.16
2022-10-24T19:26:41.201Z,97533.75
2022-10-24T19:28:42.641Z,97532.06
2022-10-24T19:30:44.804Z,97531.28
2022-10-24T19:32:49.320Z,97532.97
2022-10-24T19:34:51.263Z,97532.06
2022-10-24T19:36:52.802Z,97529.53
2022-10-24T19:38:54.114Z,97532.97
2022-10-24T19:40:58.769Z,97534.63
2022-10-24T19:43:00.076Z,97531.22
2022-10-24T19:45:01.353Z,97538.00
2022-10-24T19:47:02.646Z,97532.00
2022-10-24T19:49:03.981Z,97532.84
2022-10-24T19:51:05.460Z,97535.34
2022-10-24T19:53:06.785Z,97531.09
2022-10-24T19:55:08.182Z,97532.75
2022-10-24T19:57:09.478Z,97539.50
2022-10-24T19:59:12.288Z,97539.53
2022-10-24T20:01:13.745Z,97537.81
2022-10-24T20:03:16.159Z,97545.47
2022-10-24T20:05:17.436Z,97545.47
2022-10-24T20:07:18.786Z,97545.47
2022-10-24T20:09:20.050Z,97542.91
2022-10-24T20:11:21.550Z,97548.00
2022-10-24T20:13:22.849Z,97550.50
2022-10-24T20:15:24.175Z,97551.34
2022-10-24T20:17:25.448Z,97550.50
2022-10-24T20:19:26.766Z,97547.97
2022-10-24T20:21:28.114Z,97551.41
2022-10-24T20:23:29.422Z,97551.41
2022-10-24T20:25:30.716Z,97545.41
2022-10-24T20:27:31.993Z,97549.69
2022-10-24T20:29:33.700Z,97548.81
2022-10-24T20:31:35.024Z,97551.41
2022-10-24T20:33:36.450Z,97558.97
2022-10-24T20:35:37.750Z,97564.97
2022-10-24T20:37:39.021Z,97557.34
2022-10-24T20:39:40.541Z,97556.50
2022-10-24T20:41:42.575Z,97564.97
2022-10-24T20:43:43.952Z,97428.56
2022-10-24T20:45:45.270Z,97555.72
2022-10-24T20:47:46.915Z,97561.66
2022-10-24T20:49:48.520Z,97565.88
2022-10-24T20:51:49.911Z,97568.50
2022-10-24T20:53:51.890Z,97558.38
2022-10-24T20:55:53.215Z,97564.31
2022-10-24T20:57:54.479Z,97564.34
2022-10-24T20:59:55.794Z,97570.31
2022-10-24T21:01:57.232Z,97560.97
2022-10-24T21:03:58.733Z,97558.50
2022-10-24T21:05:59.998Z,97561.88
2022-10-24T21:08:01.461Z,97561.94
2022-10-24T21:10:02.747Z,97562.78
2022-10-24T21:12:04.024Z,97556.88
2022-10-24T21:14:05.311Z,97566.22
2022-10-24T21:16:06.643Z,97563.69
2022-10-24T21:18:07.991Z,97567.94
2022-10-24T21:20:09.276Z,97581.50
2022-10-24T21:22:10.536Z,97578.16
2022-10-24T21:24:11.839Z,97565.94
2022-10-24T21:26:13.201Z,97560.78
2022-10-24T21:28:14.474Z,97564.03
2022-10-24T21:30:16.534Z,97567.88
2022-10-24T21:32:17.810Z,97565.22
2022-10-24T21:34:19.111Z,97568.56
2022-10-24T21:36:21.095Z,97565.81
2022-10-24T21:38:22.370Z,97567.94
2022-10-24T21:40:23.639Z,97565.75
2022-10-24T21:44:31.135Z,97558.47
2022-10-24T21:46:33.303Z,97556.75
2022-10-24T21:48:34.594Z,97551.84
2022-10-24T21:50:35.958Z,97569.59
2022-10-24T21:52:37.290Z,97569.63
2022-10-24T21:54:38.635Z,97569.19
2022-10-24T21:56:39.939Z,97572.34
2022-10-24T21:58:41.257Z,97561.59
2022-10-24T22:00:42.548Z,97565.22
2022-10-24T22:02:43.953Z,97575.59
2022-10-24T22:04:45.327Z,97571.72
2022-10-24T22:06:46.664Z,97568.13
2022-10-24T22:08:48.010Z,97569.88
2022-10-24T22:10:49.280Z,97572.78
2022-10-24T22:12:50.563Z,97570.97
2022-10-24T22:14:51.836Z,97577.53
2022-10-24T22:16:53.114Z,97572.16
2022-10-24T22:18:54.377Z,97580.59
2022-10-24T22:20:55.658Z,97580.91
2022-10-24T22:22:57.194Z,97585.50
2022-10-24T22:24:58.524Z,97582.38
2022-10-24T22:26:59.849Z,97581.78
2022-10-24T22:29:01.282Z,97584.31
2022-10-24T22:31:02.563Z,97583.16
2022-10-24T22:33:03.919Z,97585.38
2022-10-24T22:35:05.210Z,97589.44
2022-10-24T22:37:06.995Z,97593.44
2022-10-24T22:39:08.266Z,97596.31
2022-10-24T22:41:09.540Z,97594.63
2022-10-24T22:43:10.848Z,97593.91
2022-10-24T22:45:12.110Z,97591.19
2022-10-24T22:47:13.459Z,97591.22
2022-10-24T22:49:14.735Z,97594.47
2022-10-24T22:51:16.011Z,97600.44
2022-10-24T22:53:17.326Z,97597.06
2022-10-24T22:55:18.825Z,97593.38
2022-10-24T22:57:20.160Z,97590.84
2022-10-24T22:59:21.493Z,97596.56
2022-10-24T23:01:22.929Z,97594.00
2022-10-24T23:03:24.271Z,97595.72
2022-10-24T23:05:25.549Z,97595.47
2022-10-24T23:07:27.751Z,97594.44
2022-10-24T23:09:29.282Z,97597.69
2022-10-24T23:11:30.610Z,97601.03
2022-10-24T23:13:31.885Z,97598.31
2022-10-24T23:15:33.151Z,97600.50
2022-10-24T23:17:34.703Z,97596.25
2022-10-24T23:19:36.031Z,97605.56
2022-10-24T23:21:37.303Z,97604.69
2022-10-24T23:23:38.595Z,97604.59
2022-10-24T23:25:39.866Z,97471.88
2022-10-24T23:27:42.358Z,97604.06
2022-10-24T23:29:43.631Z,97602.91
2022-10-24T23:31:44.919Z,97619.25
2022-10-24T23:33:46.189Z,97607.53
2022-10-24T23:35:47.463Z,97606.34
2022-10-24T23:37:48.989Z,97607.28
2022-10-24T23:39:50.260Z,97612.50
2022-10-24T23:41:51.534Z,97600.91
2022-10-24T23:43:52.849Z,97600.53
2022-10-24T23:45:54.115Z,97604.53
2022-10-24T23:47:55.395Z,97615.31
2022-10-24T23:49:56.880Z,97612.94
2022-10-24T23:51:58.134Z,97617.88
2022-10-24T23:53:59.447Z,97616.19
2022-10-24T23:58:07.099Z,97623.13
